• Join FlightAware (Why Join?)
  • Login
  • US Flag 
09:18PM EDT


 

Airport Tracker/Info


-or-


 

Live Flight TrackerFlight Track Log ✈ FLG3862 ✈ 15-Apr-2013 ✈ KDTW - KBTV

Flight Track Log - Related Links

Times and Time Zones

All times are in EDT time to prevent confusion due to time zone crossing. See the FLG3862 flight status page for this flight to view local times or setup timezone preferences in your user account.

Time Position Orientation Groundspeed Altitude Reporting Facility
EDT Latitude Longitude Course Direction KTS MPH feet Rate Location/Type
10:47AM 42.2017 -83.3553 173° South 148 170 1,400  Level Cleveland Center
10:49AM 42.1289 -83.3439 173° South 213 245 4,600 2,400 Climbing Cleveland Center
10:50AM 42.0839 -83.3056 148° Southeast 257 296 7,600 2,340 Climbing Cleveland Center
10:51AM 42.1142 -83.1725 73° East 294 338 10,000 1,680 Climbing Cleveland Center
10:52AM 42.1503 -83.0478 69° East 325 374 11,500 1,740 Climbing Cleveland Center
10:53AM 42.1967 -82.9292 62° Northeast 348 400 13,500 1,800 Climbing Cleveland Center
10:54AM 42.2428 -82.7989 64° Northeast 366 421 15,200 1,680 Climbing Cleveland Center
10:55AM 42.2914 -82.6631 64° Northeast 378 435 16,900 1,680 Climbing Cleveland Center
10:56AM 42.3394 -82.5297 64° Northeast 389 448 18,600 1,620 Climbing Cleveland Center
10:57AM 42.3647 -82.3817 77° East 394 453 20,200 1,500 Climbing Cleveland Center
10:58AM 42.3589 -82.2297 93° East 394 453 21,600 1,320 Climbing Cleveland Center
10:59AM 42.3506 -82.0722 94° East 406 467 22,900 1,500 Climbing Cleveland Center
11:00AM 42.3461 -81.9175 92° East 417 480 24,600 1,020 Climbing Cleveland Center
11:01AM 42.3375 -81.7572 94° East 417 480 25,000 180 Climbing Cleveland Center
11:02AM 42.3308 -81.5914 93° East 438 504 25,000 120 Level Cleveland Center
11:03AM 42.3258 -81.4342 92° East 455 524 25,300 660 Climbing Cleveland Center
11:04AM 42.3144 -81.2569 95° East 472 543 26,400 1,020 Climbing Cleveland Center
11:05AM 42.3050 -81.0858 94° East 467 537 27,400 900 Climbing Cleveland Center
11:06AM 42.2972 -80.9117 93° East 462 532 28,200 720 Climbing Cleveland Center
11:07AM 42.2933 -80.7403 92° East 457 526 28,900 360 Climbing Cleveland Center
11:08AM 42.3311 -80.5550 75° East 452 520 29,000  Climbing Cleveland Center
11:09AM 42.3683 -80.3836 74° East 466 536 29,000  Level Cleveland Center
11:10AM 42.4053 -80.2036 74° East 481 554 29,000  Level Cleveland Center
11:11AM 42.4400 -80.0289 75° East 481 554 29,000  Level Cleveland Center
11:12AM 42.4769 -79.8767 72° East 474 545 29,000  Level Cleveland Center
11:13AM 42.5089 -79.7044 76° East 474 545 29,000  Level Cleveland Center
11:14AM 42.5450 -79.5378 74° East 469 540 29,000  Level Cleveland Center
11:15AM 42.5789 -79.3678 75° East 464 534 29,000  Level Cleveland Center
11:16AM 42.6125 -79.1981 75° East 459 528 29,000  Level Cleveland Center
11:17AM 42.6456 -79.0278 75° East 459 528 29,000  Level Cleveland Center
11:18AM 42.6786 -78.8578 75° East 454 522 29,000  Level Cleveland Center
11:19AM 42.7136 -78.6842 75° East 454 522 29,000  Level Cleveland Center
11:20AM 42.7481 -78.5136 75° East 454 522 29,000  Level Cleveland Center
11:21AM 42.7781 -78.3400 77° East 459 528 29,000  Level Cleveland Center
11:22AM 42.8103 -78.1692 76° East 459 528 29,000  Level Cleveland Center
11:23AM 42.8419 -77.9950 76° East 459 528 29,000  Level Cleveland Center
11:24AM 42.8769 -77.8067 76° East 459 528 29,000  Level Cleveland Center
11:25AM 42.9186 -77.6375 71° East 459 528 29,000  Level Cleveland Center
11:26AM 42.9856 -77.4839 59° Northeast 459 528 29,000  Level Cleveland Center
11:28AM 43.0867 -77.2486 59° Northeast 450 518 29,000  Level Boston Center
11:29AM 43.1400 -77.1247 59° Northeast 455 524 29,000  Level Boston Center
11:30AM 43.2183 -76.9394 60° Northeast 455 524 29,000  Level Boston Center
11:31AM 43.2803 -76.7900 60° Northeast 455 524 29,000  Level Boston Center
11:32AM 43.3397 -76.6544 59° Northeast 450 518 29,000  Level Boston Center
11:33AM 43.4014 -76.5042 61° Northeast 455 524 29,000  Level Boston Center
11:34AM 43.4628 -76.3567 60° Northeast 450 518 29,000  Level Boston Center
11:35AM 43.5222 -76.2058 61° Northeast 450 518 29,000  Level Boston Center
11:36AM 43.5831 -76.0606 60° Northeast 443 510 29,000  Level Boston Center
11:37AM 43.6419 -75.9092 62° Northeast 443 510 29,000  Level Boston Center
11:38AM 43.7072 -75.7461 61° Northeast 443 510 29,000  Level Boston Center
11:39AM 43.7533 -75.5878 68° East 443 510 29,000  Level Boston Center
11:40AM 43.7994 -75.4261 68° East 443 510 29,000  Level Boston Center
11:41AM 43.8319 -75.2981 71° East 443 510 29,000  Level Boston Center
11:42AM 43.8867 -75.1019 69° East 443 510 29,000 -600 Level Boston Center
11:43AM 43.9319 -74.9425 68° East 443 510 27,800 -1,680 Descending Boston Center
11:44AM 43.9772 -74.7742 69° East 448 516 25,700 -2,220 Descending Boston Center
11:45AM 44.0311 -74.5769 69° East 448 516 23,100 -2,220 Descending Boston Center
11:46AM 44.0736 -74.4139 70° East 448 516 20,800 -2,220 Descending Boston Center
11:47AM 44.1114 -74.2617 71° East 428 493 18,700 -1,680 Descending Boston Center
11:48AM 44.1200 -74.1031 86° East 416 479 17,100 -1,740 Descending Boston Center
11:49AM 44.1289 -73.9208 86° East 395 455 14,900 -2,040 Descending Boston Center
11:50AM 44.1575 -73.7856 74° East 375 432 13,100 -1,620 Descending Boston Center
11:51AM 44.2128 -73.7086 45° Northeast 336 387 11,700 -1,500 Descending Boston Center
11:52AM 44.2928 -73.6089 42° Northeast 325 374 10,100 -1,740 Descending Boston Center
11:53AM 44.3519 -73.5403 40° Northeast 295 339 8,300 -1,920 Descending Boston Center
11:54AM 44.4108 -73.4717 40° Northeast 278 320 6,400 -1,920 Descending Boston Center
11:55AM 44.4592 -73.4231 36° Northeast 268 308 4,500 -1,680 Descending Boston Center
11:56AM 44.5139 -73.3542 42° Northeast 263 303 3,100 -1,140 Descending Boston Center
11:57AM 44.5272 -73.2700 77° East 213 245 2,300 -900 Descending Boston Center
11:58AM 44.5086 -73.2144 115° Southeast 163 188 1,300 -840 Descending Boston Center
11:59AM 44.4861 -73.1761 129° Southeast 138 159 600 -720 Descending Boston Center